»·PEaware :: N701GT KCRQ-KTUS

N701GT :: KCRQ-KTUS

FLIGHT INFORMATION

Flight Status: Arrived
Operator: Privately registered:
United States
More flights under this callsign
Pilot: Anonymous 17564 (17564)
Aircraft: ECLIPSE 500
(EA50)
More flights by this aircraft type
Origin: KCRQ McClellan-Palomar
United States
Destination: KTUS Tucson Intl
United States
More flights between these airports :: More routes between these airports
Route: PADRZ2 PADRZ TRM BLH J50 GBN DINGO5
File this flight plan on PilotEdge
Remarks: NOAA Real World Weather
Altitude:
(Current/Filed)
29,000ft
Speed:
(Current/Filed)
370kts
Departed: 14-Jul-18 12:50 PM
Arrived: 14-Jul-18 02:12 PM
Distance/Time
Traveled:
326nm/1:22
Distance/Time
To Go:
Arrived

Flight Plot

Page will automatically refresh every two minutes.


Map Options




Map Legend


Flown Route
Filed Route
Departure Airport
Arrival Airport
Navaid (VOR, NDB)
Fix

Horizontal Profiles

Position Reports

Time Latitude Longitude Heading Altitude Ground
Speed
14-Jul-18 12:37 33.127320 -117.274601 256 303ft 0kts
14-Jul-18 12:38 33.127320 -117.274601 256 303ft 0kts
14-Jul-18 12:39 33.127320 -117.274601 256 303ft 0kts
14-Jul-18 12:40 33.127320 -117.274601 256 303ft 0kts
14-Jul-18 12:41 33.127320 -117.274601 256 303ft 0kts
14-Jul-18 12:42 33.127320 -117.274601 256 303ft 0kts
14-Jul-18 12:43 33.127320 -117.274601 256 303ft 0kts
14-Jul-18 12:44 33.127320 -117.274601 256 303ft 0kts
14-Jul-18 12:45 33.127320 -117.274601 256 303ft 0kts
14-Jul-18 12:46 33.127897 -117.275099 352 303ft 7kts
14-Jul-18 12:47 33.128617 -117.272859 38 303ft 0kts
14-Jul-18 12:48 33.128617 -117.272859 38 303ft 0kts
14-Jul-18 12:49 33.128617 -117.272859 38 303ft 0kts
14-Jul-18 12:50 33.128724 -117.272795 14 303ft 8kts
14-Jul-18 12:51 33.126110 -117.292069 256 753ft 123kts
14-Jul-18 12:52 33.117470 -117.338196 256 2855ft 158kts
14-Jul-18 12:53 33.106737 -117.396223 256 3000ft 192kts
14-Jul-18 12:54 33.094948 -117.459240 256 2994ft 200kts
14-Jul-18 12:55 33.082713 -117.524708 256 2989ft 204kts
14-Jul-18 12:56 33.073549 -117.586050 264 4725ft 188kts
14-Jul-18 12:57 33.069569 -117.644143 263 7632ft 174kts
14-Jul-18 12:58 33.065483 -117.700342 262 9780ft 183kts
14-Jul-18 12:59 33.088138 -117.751112 317 11866ft 192kts
14-Jul-18 13:00 33.127960 -117.793391 318 13863ft 196kts
14-Jul-18 13:01 33.170048 -117.833466 350 15659ft 200kts
14-Jul-18 13:02 33.197106 -117.785053 68 17347ft 203kts
14-Jul-18 13:03 33.215551 -117.721768 68 18916ft 209kts
14-Jul-18 13:04 33.234130 -117.655366 68 20398ft 215kts
14-Jul-18 13:05 33.252923 -117.586654 68 21776ft 223kts
14-Jul-18 13:06 33.272283 -117.515314 68 23104ft 231kts
14-Jul-18 13:07 33.289950 -117.449743 68 24283ft 234kts
14-Jul-18 13:08 33.309815 -117.375762 68 25547ft 236kts
14-Jul-18 13:09 33.329675 -117.301560 68 26708ft 238kts
14-Jul-18 13:10 33.349811 -117.226162 69 27832ft 239kts
14-Jul-18 13:11 33.369977 -117.150270 69 28871ft 241kts
14-Jul-18 13:12 33.391537 -117.068997 69 29050ft 277kts
14-Jul-18 13:13 33.416421 -116.974815 70 29039ft 315kts
14-Jul-18 13:14 33.443602 -116.871535 70 29038ft 341kts
14-Jul-18 13:15 33.472773 -116.760272 70 29037ft 359kts
14-Jul-18 13:16 33.503258 -116.643589 70 28928ft 374kts
14-Jul-18 13:17 33.534423 -116.523683 70 28901ft 379kts
14-Jul-18 13:18 33.565015 -116.405661 70 28864ft 371kts
14-Jul-18 13:19 33.594540 -116.291312 71 28862ft 371kts
14-Jul-18 13:20 33.624331 -116.173685 78 28850ft 375kts
14-Jul-18 13:21 33.625586 -116.048608 89 28862ft 374kts
14-Jul-18 13:22 33.623780 -115.924488 90 28862ft 374kts
14-Jul-18 13:23 33.621459 -115.801405 90 28862ft 374kts
14-Jul-18 13:24 33.618898 -115.677253 90 28862ft 373kts
14-Jul-18 13:25 33.616206 -115.553207 90 28862ft 374kts
14-Jul-18 13:26 33.613397 -115.428630 90 28878ft 373kts
14-Jul-18 13:27 33.610582 -115.308852 91 28917ft 374kts
14-Jul-18 13:28 33.607507 -115.184612 91 28917ft 371kts
14-Jul-18 13:29 33.604362 -115.061197 91 28917ft 371kts
14-Jul-18 13:30 33.601085 -114.937954 91 28917ft 371kts
14-Jul-18 13:31 33.597683 -114.814714 91 28917ft 371kts
14-Jul-18 13:32 33.589831 -114.691604 94 28917ft 371kts
14-Jul-18 13:33 33.579029 -114.568714 94 28917ft 372kts
14-Jul-18 13:34 33.568382 -114.448765 94 28910ft 336kts
14-Jul-18 13:35 33.557872 -114.334352 95 28918ft 357kts
14-Jul-18 13:36 33.547704 -114.224136 95 28918ft 369kts
14-Jul-18 13:37 33.536376 -114.101983 95 28917ft 371kts
14-Jul-18 13:38 33.524899 -113.979697 95 28917ft 371kts
14-Jul-18 13:39 33.513273 -113.857225 95 28917ft 371kts
14-Jul-18 13:40 33.501598 -113.734392 95 28924ft 372kts
14-Jul-18 13:41 33.489589 -113.612324 95 28091ft 358kts
14-Jul-18 13:42 33.477798 -113.492315 95 27389ft 362kts
14-Jul-18 13:43 33.465608 -113.373645 100 26670ft 359kts
14-Jul-18 13:44 33.409161 -113.277763 128 25879ft 358kts
14-Jul-18 13:45 33.344417 -113.188875 129 25150ft 353kts
14-Jul-18 13:46 33.279527 -113.101779 130 24421ft 350kts
14-Jul-18 13:47 33.214948 -113.015773 129 23970ft 346kts
14-Jul-18 13:48 33.150825 -112.930520 129 23968ft 346kts
14-Jul-18 13:49 33.086687 -112.845505 129 23950ft 346kts
14-Jul-18 13:50 33.022160 -112.760490 130 23954ft 346kts
14-Jul-18 13:51 32.958415 -112.672907 116 22817ft 345kts
14-Jul-18 13:52 32.918335 -112.573731 113 21118ft 332kts
14-Jul-18 13:53 32.880600 -112.476886 113 19438ft 324kts
14-Jul-18 13:54 32.843825 -112.381846 113 17747ft 316kts
14-Jul-18 13:55 32.808126 -112.289576 113 16281ft 310kts
14-Jul-18 13:56 32.772336 -112.197406 114 14976ft 304kts
14-Jul-18 13:57 32.737027 -112.106677 114 13673ft 302kts
14-Jul-18 13:58 32.702030 -112.016906 114 12372ft 298kts
14-Jul-18 13:59 32.666718 -111.926572 114 12037ft 308kts
14-Jul-18 14:00 32.630809 -111.834872 114 12036ft 309kts
14-Jul-18 14:01 32.594716 -111.743013 114 12036ft 309kts
14-Jul-18 14:02 32.558272 -111.650643 114 12035ft 309kts
14-Jul-18 14:03 32.509376 -111.566897 126 12085ft 322kts
14-Jul-18 14:04 32.461750 -111.471521 119 12443ft 341kts
14-Jul-18 14:05 32.417522 -111.380436 119 10824ft 302kts
14-Jul-18 14:06 32.377369 -111.295283 119 8915ft 290kts
14-Jul-18 14:07 32.341888 -111.213352 120 6914ft 272kts
14-Jul-18 14:08 32.295022 -111.149868 138 6083ft 260kts
14-Jul-18 14:09 32.247602 -111.094040 137 5969ft 240kts
14-Jul-18 14:10 32.200326 -111.038352 132 4735ft 235kts
14-Jul-18 14:11 32.160142 -110.990984 136 3613ft 169kts
14-Jul-18 14:12 32.133013 -110.959260 133 2784ft 116kts
14-Jul-18 14:13 32.118208 -110.941763 128 2595ft 25kts
14-Jul-18 14:14 32.117637 -110.939820 91 2598ft 14kts
14-Jul-18 14:15 32.120787 -110.942269 314 2589ft 19kts

Navigation Log

Ident Type
Flight plan parsing failed, navigation log unavailable